Time;durP1;ratioP1;P1;durP2;ratioP2;P2;SDS_P1;SDS_P2;PMS_P1;PMS_P2;Temp;Humidity;BMP_temperature;BMP_pressure;BME280_temperature;BME280_humidity;BME280_pressure;Samples;Min_cycle;Max_cycle;Signal;HPM_P1;HPM_P2
2021/12/25 00:00:55;;;;;;;4.30;1.50;;;;;;;-2.62;82.66;100188.42;104334;1331;62422;-80
2021/12/25 00:03:22;;;;;;;2.60;1.20;;;;;;;-2.65;82.73;100185.71;104377;1312;60404;-79
2021/12/25 00:05:52;;;;;;;5.00;2.00;;;;;;;-2.70;82.49;100195.52;104932;1323;78187;-80
2021/12/25 00:08:20;;;;;;;5.10;2.00;;;;;;;-2.72;83.20;100192.55;104977;1324;71229;-80
2021/12/25 00:10:47;;;;;;;4.00;2.20;;;;;;;-2.72;83.33;100191.00;104589;1328;73002;-80
2021/12/25 00:13:15;;;;;;;4.10;1.20;;;;;;;-2.72;83.59;100191.86;104975;1326;61477;-80
2021/12/25 00:15:42;;;;;;;2.70;1.00;;;;;;;-2.73;83.39;100201.13;103974;1312;60761;-81
2021/12/25 00:18:09;;;;;;;5.10;1.90;;;;;;;-2.74;83.63;100215.05;104998;1325;76184;-80
2021/12/25 00:20:36;;;;;;;4.80;1.90;;;;;;;-2.75;83.95;100214.19;104861;1322;72540;-80
2021/12/25 00:23:07;;;;;;;2.90;1.60;;;;;;;-2.75;83.98;100214.52;104781;1322;72597;-80
2021/12/25 00:25:39;;;;;;;4.40;1.70;;;;;;;-2.74;84.10;100218.15;105020;1322;61704;-80
2021/12/25 00:36:07;;;;;;;10.70;2.40;;;;;;;-2.75;84.44;100232.39;104776;1322;74100;-80
2021/12/25 00:38:36;;;;;;;6.50;3.00;;;;;;;-2.75;84.71;100238.23;104767;1325;62702;-80
2021/12/25 00:41:06;;;;;;;12.50;2.30;;;;;;;-2.73;84.94;100241.11;104828;1323;60605;-80
2021/12/25 00:43:33;;;;;;;5.30;1.80;;;;;;;-2.73;84.97;100248.15;104733;1322;74878;-80
2021/12/25 00:46:00;;;;;;;1.70;0.80;;;;;;;-2.72;84.99;100251.23;104561;1324;71596;-81
2021/12/25 00:48:27;;;;;;;5.30;1.90;;;;;;;-2.75;84.68;100258.16;104293;1318;72877;-80
2021/12/25 00:50:54;;;;;;;7.30;2.90;;;;;;;-2.79;84.62;100263.11;104889;1323;62256;-80
2021/12/25 00:53:20;;;;;;;6.50;2.40;;;;;;;-2.82;84.46;100268.69;104548;1328;61642;-81
2021/12/25 00:55:47;;;;;;;5.10;1.60;;;;;;;-2.86;84.30;100270.30;104838;1328;76259;-81
2021/12/25 00:58:14;;;;;;;8.90;2.30;;;;;;;-2.90;84.08;100275.39;104343;1312;70591;-79
2021/12/25 01:00:41;;;;;;;5.90;2.70;;;;;;;-2.92;84.50;100277.61;104896;1322;74728;-80
2021/12/25 01:03:08;;;;;;;6.30;1.60;;;;;;;-2.92;84.98;100280.54;104961;1320;61282;-81
2021/12/25 01:05:35;;;;;;;7.30;1.80;;;;;;;-2.94;84.43;100281.04;104566;1321;60579;-80
2021/12/25 01:08:03;;;;;;;7.60;1.90;;;;;;;-2.98;84.34;100287.15;104898;1326;76189;-80
2021/12/25 01:10:29;;;;;;;5.80;2.30;;;;;;;-3.00;84.53;100290.08;104951;1327;72456;-80
2021/12/25 01:13:34;;;;;;;2.80;1.20;;;;;;;-3.01;84.64;100292.57;104214;1322;72906;-80
2021/12/25 01:16:04;;;;;;;7.60;3.10;;;;;;;-3.05;84.65;100291.23;104629;1325;62198;-80
2021/12/25 01:19:03;;;;;;;10.60;2.40;;;;;;;-3.06;84.79;100293.75;104905;1316;61359;-81
2021/12/25 01:24:15;;;;;;;6.70;2.10;;;;;;;-3.10;84.53;100304.73;104945;1322;72495;-81
2021/12/25 01:27:09;;;;;;;6.30;2.10;;;;;;;-3.15;84.66;100305.86;104834;1322;75369;-81
2021/12/25 01:29:43;;;;;;;5.00;1.70;;;;;;;-3.19;84.40;100305.30;104913;1328;61681;-80
2021/12/25 01:37:37;;;;;;;5.30;1.90;;;;;;;-3.37;83.94;100305.00;104991;1320;72590;-79
2021/12/25 01:48:23;;;;;;;0.90;0.50;;;;;;;-3.67;82.06;100312.55;104907;1322;74921;-79
2021/12/25 01:50:50;;;;;;;2.20;1.20;;;;;;;-3.73;82.35;100309.09;104590;1309;72653;-78
2021/12/25 01:53:17;;;;;;;3.40;0.60;;;;;;;-3.79;81.60;100316.88;103863;1309;76089;-80
2021/12/25 01:55:43;;;;;;;1.20;0.30;;;;;;;-3.84;80.55;100319.26;105007;1327;61187;-80
2021/12/25 01:58:10;;;;;;;3.90;0.50;;;;;;;-3.89;80.68;100317.51;104880;1322;60289;-80
2021/12/25 02:00:39;;;;;;;2.70;1.00;;;;;;;-3.93;80.98;100318.08;104973;1322;74979;-80
2021/12/25 02:03:09;;;;;;;1.10;0.40;;;;;;;-3.97;81.21;100318.13;104620;1325;72313;-80
2021/12/25 02:05:36;;;;;;;1.40;0.70;;;;;;;-4.01;81.13;100320.98;104915;1328;74134;-79
2021/12/25 02:08:20;;;;;;;8.30;1.40;;;;;;;-4.05;80.87;100322.92;104609;1309;62317;-79
2021/12/25 02:10:48;;;;;;;4.70;0.80;;;;;;;-4.09;81.13;100332.13;104831;1312;62740;-79
2021/12/25 02:13:15;;;;;;;3.90;0.90;;;;;;;-4.14;81.32;100330.72;104759;1321;76110;-79
2021/12/25 02:15:45;;;;;;;2.80;0.70;;;;;;;-4.16;81.44;100335.17;104589;1321;71388;-79
2021/12/25 02:18:17;;;;;;;7.30;1.30;;;;;;;-4.20;81.28;100334.84;104621;1324;73021;-80
2021/12/25 02:20:54;;;;;;;8.30;1.00;;;;;;;-4.22;81.36;100337.41;104904;1323;62473;-80
2021/12/25 02:23:23;;;;;;;6.90;1.20;;;;;;;-4.25;81.39;100331.39;104950;1325;60745;-80
2021/12/25 02:25:51;;;;;;;6.80;1.20;;;;;;;-4.28;81.43;100330.83;104955;1326;74823;-80
2021/12/25 02:28:19;;;;;;;3.10;1.00;;;;;;;-4.31;81.67;100334.09;104607;1326;71175;-79
2021/12/25 02:30:48;;;;;;;0.40;0.30;;;;;;;-4.34;81.37;100335.82;103961;1312;73087;-80
2021/12/25 02:33:18;;;;;;;4.80;1.20;;;;;;;-4.37;81.52;100341.20;104809;1322;62653;-80
2021/12/25 02:35:45;;;;;;;3.80;1.10;;;;;;;-4.38;81.96;100341.10;104581;1312;60894;-79
2021/12/25 02:38:13;;;;;;;6.00;1.10;;;;;;;-4.40;81.81;100343.80;104830;1322;76071;-81
2021/12/25 02:40:40;;;;;;;2.90;0.90;;;;;;;-4.43;82.06;100344.64;104542;1311;72627;-79
2021/12/25 02:43:07;;;;;;;3.80;1.10;;;;;;;-4.47;82.11;100346.61;104233;1309;72903;-79
2021/12/25 02:45:33;;;;;;;1.70;1.10;;;;;;;-4.49;82.44;100346.21;103890;1309;63921;-79
2021/12/25 02:48:14;;;;;;;8.70;1.30;;;;;;;-4.52;82.71;100348.59;104170;1312;61334;-81
2021/12/25 02:50:41;;;;;;;7.20;2.00;;;;;;;-4.53;83.00;100340.23;105026;1320;74931;-81
2021/12/25 02:53:09;;;;;;;1.30;0.40;;;;;;;-4.55;83.00;100343.77;104605;1323;72550;-79
2021/12/25 02:55:37;;;;;;;3.10;0.80;;;;;;;-4.58;83.33;100343.75;105035;1325;74041;-81
2021/12/25 02:58:05;;;;;;;3.50;1.40;;;;;;;-4.61;83.76;100345.30;104108;1322;63138;-79
2021/12/25 03:00:45;;;;;;;1.80;0.80;;;;;;;-4.62;83.97;100342.46;104405;1321;60279;-79
2021/12/25 03:03:12;;;;;;;6.30;1.00;;;;;;;-4.65;84.22;100341.91;105053;1321;74971;-80
2021/12/25 03:05:39;;;;;;;5.80;1.70;;;;;;;-4.70;84.50;100347.17;104363;1322;71910;-81
2021/12/25 03:08:07;;;;;;;7.10;2.00;;;;;;;-4.73;85.10;100347.37;105323;1324;73955;-81
2021/12/25 03:10:36;;;;;;;7.60;1.70;;;;;;;-4.74;85.49;100347.94;103859;1328;62478;-81
2021/12/25 03:15:45;;;;;;;4.30;1.00;;;;;;;-4.77;86.18;100351.73;104767;1321;75424;-82
2021/12/25 03:20:56;;;;;;;2.90;0.70;;;;;;;-4.78;86.93;100358.19;104211;1312;72907;-79
2021/12/25 03:23:25;;;;;;;6.10;2.40;;;;;;;-4.80;87.03;100361.06;104407;1312;64907;-80
2021/12/25 03:25:54;;;;;;;9.90;2.80;;;;;;;-4.81;87.37;100364.06;103835;1324;60558;-80
2021/12/25 03:28:24;;;;;;;14.20;3.10;;;;;;;-4.83;87.37;100371.20;105030;1325;75429;-81
2021/12/25 03:30:51;;;;;;;9.40;3.10;;;;;;;-4.83;87.63;100372.42;104758;1325;71747;-80
2021/12/25 03:33:20;;;;;;;10.90;2.50;;;;;;;-4.86;87.73;100380.54;104914;1321;72901;-79
2021/12/25 03:35:47;;;;;;;6.40;2.70;;;;;;;-4.88;88.00;100382.02;104632;1325;61484;-81
2021/12/25 03:38:19;;;;;;;5.20;0.70;;;;;;;-4.91;88.10;100388.19;104950;1326;61644;-79
2021/12/25 03:40:48;;;;;;;7.20;2.50;;;;;;;-4.95;88.29;100386.70;104763;1327;75068;-79
2021/12/25 03:43:16;;;;;;;8.30;2.50;;;;;;;-4.98;88.41;100385.46;104906;1320;72479;-81
2021/12/25 03:45:44;;;;;;;10.50;2.70;;;;;;;-5.00;88.55;100384.89;103877;1328;72923;-81
2021/12/25 03:48:43;;;;;;;12.90;2.60;;;;;;;-5.01;88.77;100381.86;103662;1330;63351;-81
2021/12/25 03:59:08;;;;;;;6.90;1.90;;;;;;;-5.10;89.14;100389.92;104598;1325;72995;-80
2021/12/25 04:04:14;;;;;;;13.00;2.80;;;;;;;-5.16;89.41;100395.08;104241;1320;61750;-81
2021/12/25 04:06:51;;;;;;;8.80;2.50;;;;;;;-5.20;89.38;100398.73;104839;1322;74961;-81
2021/12/25 04:11:47;;;;;;;2.40;0.90;;;;;;;-5.26;89.42;100399.55;104870;1309;71258;-78
2021/12/25 04:14:16;;;;;;;6.80;2.50;;;;;;;-5.27;89.76;100404.11;104893;1317;61430;-79
2021/12/25 04:16:42;;;;;;;11.40;2.40;;;;;;;-5.27;89.81;100404.29;104618;1325;62120;-81
2021/12/25 04:19:09;;;;;;;3.40;1.80;;;;;;;-5.29;89.65;100406.81;103645;1331;73877;-81
2021/12/25 04:24:05;;;;;;;14.40;3.00;;;;;;;-5.34;89.74;100412.05;104761;1309;71683;-80
2021/12/25 04:26:36;;;;;;;11.40;2.80;;;;;;;-5.39;89.34;100410.02;104329;1309;59269;-80
2021/12/25 04:29:20;;;;;;;5.90;2.30;;;;;;;-5.45;89.48;100407.27;104926;1322;62662;-80
2021/12/25 05:04:03;;;;;;;7.50;2.40;;;;;;;-5.65;90.07;100410.55;104781;1321;74233;-81
2021/12/25 05:06:30;;;;;;;8.80;2.40;;;;;;;-5.69;89.98;100410.77;104808;1322;61559;-80
2021/12/25 05:08:57;;;;;;;5.70;2.30;;;;;;;-5.75;89.78;100405.85;104682;1309;61611;-81
2021/12/25 05:11:23;;;;;;;9.60;2.50;;;;;;;-5.77;90.19;100405.95;104953;1322;59081;-81
2021/12/25 05:13:52;;;;;;;6.60;2.50;;;;;;;-5.78;90.25;100411.36;104923;1320;70825;-80
2021/12/25 05:16:21;;;;;;;7.50;3.10;;;;;;;-5.78;90.48;100415.32;104930;1321;59162;-81
2021/12/25 05:18:50;;;;;;;7.20;2.50;;;;;;;-5.77;90.45;100412.69;104741;1323;62541;-80
2021/12/25 05:21:18;;;;;;;13.00;2.70;;;;;;;-5.78;90.33;100413.40;104507;1325;60630;-81
2021/12/25 05:23:46;;;;;;;15.60;3.20;;;;;;;-5.80;90.46;100415.44;104176;1328;75251;-81
2021/12/25 05:26:14;;;;;;;11.20;2.80;;;;;;;-5.83;90.24;100419.05;104588;1321;72379;-81
2021/12/25 05:28:43;;;;;;;7.40;2.90;;;;;;;-5.84;90.50;100422.87;104775;1321;73294;-82
2021/12/25 05:31:13;;;;;;;7.70;3.00;;;;;;;-5.85;90.36;100426.71;104816;1320;61164;-81
2021/12/25 05:33:41;;;;;;;8.50;2.70;;;;;;;-5.88;90.31;100427.91;105030;1309;60516;-80
2021/12/25 05:36:10;;;;;;;9.10;2.70;;;;;;;-5.92;90.39;100424.64;104517;1309;76089;-81
2021/12/25 05:38:36;;;;;;;10.10;3.00;;;;;;;-5.96;90.27;100427.27;104363;1311;74366;-81
2021/12/25 05:41:03;;;;;;;10.10;2.50;;;;;;;-5.97;90.23;100428.36;104583;1309;59273;-79
2021/12/25 05:43:30;;;;;;;4.70;2.20;;;;;;;-6.02;90.13;100437.20;104901;1322;60313;-81
2021/12/25 05:45:57;;;;;;;3.80;1.80;;;;;;;-6.06;90.08;100437.23;104479;1322;61468;-80
2021/12/25 05:48:23;;;;;;;5.70;1.70;;;;;;;-6.10;90.22;100438.13;104435;1318;74939;-81
2021/12/25 05:50:50;;;;;;;5.10;2.40;;;;;;;-6.13;90.50;100438.78;104933;1322;72456;-81
2021/12/25 05:53:19;;;;;;;11.00;2.80;;;;;;;-6.16;90.47;100442.39;105066;1322;73916;-82
2021/12/25 05:55:46;;;;;;;7.20;1.80;;;;;;;-6.18;90.70;100447.27;105007;1323;61403;-81
2021/12/25 05:58:12;;;;;;;3.30;1.70;;;;;;;-6.19;90.78;100450.08;104772;1322;60869;-81
2021/12/25 06:00:39;;;;;;;7.80;2.70;;;;;;;-6.19;90.96;100451.66;105019;1321;74935;-81
2021/12/25 06:03:06;;;;;;;12.00;3.00;;;;;;;-6.19;90.96;100456.29;103970;1326;73036;-81
2021/12/25 06:05:32;;;;;;;6.80;2.00;;;;;;;-6.20;90.92;100457.73;105055;1322;74065;-80
2021/12/25 06:08:00;;;;;;;8.10;2.50;;;;;;;-6.20;91.23;100460.47;103631;1329;62614;-82
2021/12/25 06:10:27;;;;;;;10.20;2.40;;;;;;;-6.22;91.04;100458.14;104939;1322;61744;-81
2021/12/25 06:12:59;;;;;;;12.90;2.20;;;;;;;-6.23;90.91;100464.56;104886;1322;75947;-81
2021/12/25 06:17:59;;;;;;;6.50;2.10;;;;;;;-6.26;91.18;100469.85;104574;1309;72973;-81
2021/12/25 06:20:26;;;;;;;7.00;3.10;;;;;;;-6.27;91.37;100474.38;104617;1325;59108;-80
2021/12/25 06:22:52;;;;;;;8.60;2.10;;;;;;;-6.27;91.18;100478.20;104904;1322;60721;-80
2021/12/25 06:25:21;;;;;;;4.20;1.80;;;;;;;-6.28;91.33;100477.05;104535;1309;75960;-81
2021/12/25 06:27:47;;;;;;;7.50;2.50;;;;;;;-6.28;91.52;100478.09;104342;1322;70553;-82
2021/12/25 06:30:14;;;;;;;5.90;2.00;;;;;;;-6.28;91.45;100482.69;104235;1322;74158;-81
2021/12/25 06:32:41;;;;;;;7.40;2.70;;;;;;;-6.27;91.37;100480.78;104922;1309;61333;-81
2021/12/25 06:35:08;;;;;;;6.10;2.60;;;;;;;-6.28;91.45;100481.52;105206;1309;59898;-81
2021/12/25 06:37:35;;;;;;;4.80;2.00;;;;;;;-6.31;91.12;100482.69;103877;1309;571180;-79
2021/12/25 06:40:02;;;;;;;8.10;2.70;;;;;;;-6.32;91.32;100483.41;104352;1322;72501;-80
2021/12/25 06:42:29;;;;;;;5.90;2.30;;;;;;;-6.32;91.14;100484.12;104689;1309;73921;-79
2021/12/25 06:44:56;;;;;;;10.50;3.00;;;;;;;-6.32;91.47;100483.60;104953;1322;58381;-81
2021/12/25 06:47:22;;;;;;;0.40;0.30;;;;;;;-6.34;90.78;100482.14;104392;1321;60583;-81
2021/12/25 06:49:49;;;;;;;5.00;2.00;;;;;;;-6.36;90.88;100484.45;104969;1322;75961;-81
2021/12/25 06:52:16;;;;;;;5.60;2.50;;;;;;;-6.38;90.96;100488.16;104949;1309;71706;-81
2021/12/25 06:54:42;;;;;;;6.80;2.20;;;;;;;-6.39;91.00;100484.80;104925;1323;59124;-83
2021/12/25 06:57:09;;;;;;;6.80;1.90;;;;;;;-6.38;90.91;100491.92;104466;1324;62530;-82
2021/12/25 06:59:36;;;;;;;8.90;2.30;;;;;;;-6.40;90.75;100492.71;104294;1325;59523;-81
2021/12/25 07:02:03;;;;;;;3.50;1.60;;;;;;;-6.39;90.84;100500.42;104948;1322;59176;-82
2021/12/25 07:04:30;;;;;;;11.70;1.30;;;;;;;-6.39;90.76;100498.35;104973;1321;70615;-82
2021/12/25 07:06:57;;;;;;;12.10;2.40;;;;;;;-6.40;90.72;100505.27;104452;1324;74129;-82
2021/12/25 07:09:23;;;;;;;3.20;1.70;;;;;;;-6.41;90.48;100505.51;104642;1321;61690;-82
2021/12/25 07:11:50;;;;;;;20.10;2.70;;;;;;;-6.44;90.12;100510.63;104509;1322;60353;-80
2021/12/25 07:14:21;;;;;;;4.00;1.70;;;;;;;-6.44;90.43;100510.45;104726;1322;74669;-81
2021/12/25 07:16:48;;;;;;;10.10;2.20;;;;;;;-6.43;90.38;100513.20;104936;1322;71423;-81
2021/12/25 07:19:15;;;;;;;11.50;2.10;;;;;;;-6.44;90.08;100515.63;104944;1322;73979;-80
2021/12/25 07:21:43;;;;;;;5.20;1.90;;;;;;;-6.47;89.70;100515.94;104461;1328;61496;-81
2021/12/25 07:24:11;;;;;;;6.30;2.40;;;;;;;-6.50;89.71;100520.55;104758;1327;60445;-82
2021/12/25 07:26:39;;;;;;;16.40;3.00;;;;;;;-6.52;89.67;100524.29;104653;1325;76038;-82
2021/12/25 07:29:06;;;;;;;7.00;2.70;;;;;;;-6.54;89.60;100524.35;104777;1319;71471;-82
2021/12/25 07:31:33;;;;;;;10.80;3.80;;;;;;;-6.56;89.57;100524.95;104987;1311;74024;-80
2021/12/25 07:34:02;;;;;;;13.90;4.60;;;;;;;-6.56;89.80;100526.99;105056;1309;63745;-81
2021/12/25 07:36:29;;;;;;;12.10;3.00;;;;;;;-6.56;89.53;100526.13;104685;1324;60560;-82
2021/12/25 07:38:56;;;;;;;7.00;2.70;;;;;;;-6.56;89.41;100524.09;104538;1323;74973;-82
2021/12/25 07:41:23;;;;;;;15.10;3.40;;;;;;;-6.56;89.55;100530.10;104829;1322;71226;-82
2021/12/25 07:43:49;;;;;;;9.00;2.90;;;;;;;-6.56;89.34;100535.95;104534;1322;74171;-80
2021/12/25 07:46:19;;;;;;;6.60;3.00;;;;;;;-6.56;89.26;100542.14;104766;1322;61276;-83
2021/12/25 07:48:47;;;;;;;10.80;3.00;;;;;;;-6.52;89.71;100545.63;104837;1321;60282;-82
2021/12/25 07:51:13;;;;;;;9.80;2.80;;;;;;;-6.51;89.35;100541.10;104807;1322;76103;-83
2021/12/25 07:53:43;;;;;;;13.50;2.50;;;;;;;-6.51;89.12;100542.63;103533;1331;72443;-82
2021/12/25 07:56:11;;;;;;;11.60;3.50;;;;;;;-6.51;89.22;100542.98;104832;1321;72029;-82
2021/12/25 07:58:38;;;;;;;5.70;3.00;;;;;;;-6.49;89.20;100550.09;104855;1319;60593;-82
2021/12/25 08:09:28;;;;;;;14.10;5.70;;;;;;;-6.37;89.26;100560.23;105160;1309;71546;-81
2021/12/25 08:11:55;;;;;;;;;;;;;;;-6.28;89.91;100560.67;105316;1309;62224;-78
2021/12/25 08:14:25;;;;;;;10.80;6.20;;;;;;;-6.15;90.16;100560.05;105005;1322;60348;-81
2021/12/25 08:16:53;;;;;;;9.50;4.50;;;;;;;-6.05;89.43;100560.27;104929;1321;76313;-78
2021/12/25 08:19:21;;;;;;;9.60;4.40;;;;;;;-5.94;89.81;100560.77;104497;1324;72740;-78
2021/12/25 08:21:48;;;;;;;10.00;4.90;;;;;;;-5.81;89.43;100564.77;104644;1324;72895;-81
2021/12/25 08:24:19;;;;;;;7.90;4.10;;;;;;;-5.68;89.07;100567.30;104921;1321;61127;-82
2021/12/25 08:26:47;;;;;;;16.30;4.60;;;;;;;-5.60;88.66;100572.39;104969;1325;59273;-81
2021/12/25 08:29:14;;;;;;;12.10;4.50;;;;;;;-5.52;88.48;100575.64;104661;1324;76120;-81
2021/12/25 08:31:41;;;;;;;13.60;5.60;;;;;;;-5.48;87.88;100579.23;104917;1318;72447;-78
2021/12/25 08:34:10;;;;;;;13.40;5.30;;;;;;;-5.43;87.89;100575.02;105008;1323;71754;-81
2021/12/25 08:36:37;;;;;;;8.50;3.90;;;;;;;-5.38;87.87;100579.58;104696;1322;61703;-78
2021/12/25 08:39:06;;;;;;;22.20;5.10;;;;;;;-5.31;87.52;100584.95;104867;1322;60829;-78
2021/12/25 08:41:33;;;;;;;10.90;4.20;;;;;;;-5.28;87.39;100587.71;104506;1322;76479;-83
2021/12/25 08:44:07;;;;;;;11.60;4.00;;;;;;;-5.24;87.09;100589.09;104859;1322;71517;-81
2021/12/25 08:46:44;;;;;;;11.30;3.50;;;;;;;-5.19;87.07;100588.48;104876;1318;72876;-79
2021/12/25 08:49:16;;;;;;;7.50;4.10;;;;;;;-5.12;87.22;100590.52;104518;1322;62355;-82
2021/12/25 08:51:44;;;;;;;17.00;4.40;;;;;;;-5.08;86.55;100593.60;104379;1324;60277;-81
2021/12/25 08:54:11;;;;;;;8.60;2.90;;;;;;;-5.07;86.26;100597.20;104589;1323;76039;-79
2021/12/25 08:56:39;;;;;;;16.30;3.80;;;;;;;-5.06;86.11;100603.35;104584;1325;72516;-79
2021/12/25 08:59:06;;;;;;;6.80;2.90;;;;;;;-5.05;85.97;100608.13;104777;1322;73024;-78
2021/12/25 09:01:33;;;;;;;9.20;3.10;;;;;;;-5.02;85.74;100605.36;104404;1328;59906;-78
2021/12/25 09:04:00;;;;;;;13.20;4.30;;;;;;;-5.02;85.36;100610.19;103836;1325;60658;-82
2021/12/25 09:06:27;;;;;;;5.40;3.10;;;;;;;-5.03;85.04;100613.36;104826;1326;75892;-78
2021/12/25 09:08:59;;;;;;;6.60;2.70;;;;;;;-5.04;84.85;100610.48;104812;1320;72398;-79
2021/12/25 09:11:26;;;;;;;6.10;2.70;;;;;;;-5.06;84.75;100613.20;104802;1322;72951;-81
2021/12/25 09:13:52;;;;;;;14.70;4.10;;;;;;;-5.08;84.30;100612.79;103545;1327;59224;-82
2021/12/25 09:16:19;;;;;;;8.90;3.90;;;;;;;-5.10;84.61;100616.46;103558;1325;59100;-81
2021/12/25 09:18:46;;;;;;;15.60;5.60;;;;;;;-5.08;84.88;100620.33;104754;1321;76119;-79
2021/12/25 09:21:13;;;;;;;22.10;7.30;;;;;;;-5.05;84.70;100624.17;104779;1318;71318;-81
2021/12/25 09:23:41;;;;;;;28.40;6.60;;;;;;;-5.04;84.43;100624.98;103827;1324;75783;-79
2021/12/25 09:26:08;;;;;;;10.30;4.90;;;;;;;-5.05;84.34;100626.40;104344;1324;60596;-82
2021/12/25 09:28:35;;;;;;;13.80;6.20;;;;;;;-5.02;84.81;100629.20;104828;1322;61677;-78
2021/12/25 09:31:04;;;;;;;11.00;5.40;;;;;;;-4.98;84.86;100631.58;104395;1321;75021;-81
2021/12/25 09:33:31;;;;;;;10.20;4.90;;;;;;;-4.93;84.95;100632.52;104593;1324;71497;-79
2021/12/25 09:36:02;;;;;;;14.90;5.30;;;;;;;-4.90;84.75;100633.76;104560;1321;74110;-78
2021/12/25 09:38:30;;;;;;;18.20;6.00;;;;;;;-4.86;84.76;100639.95;104440;1325;61660;-79
2021/12/25 09:40:58;;;;;;;20.30;7.00;;;;;;;-4.83;84.85;100640.80;103774;1325;59523;-81
2021/12/25 09:43:26;;;;;;;17.40;7.00;;;;;;;-4.80;84.88;100644.45;104798;1309;76218;-77
2021/12/25 09:45:53;;;;;;;5.40;3.40;;;;;;;-4.78;84.71;100641.77;104395;1311;75426;-81
2021/12/25 09:48:21;;;;;;;19.90;7.80;;;;;;;-4.80;84.01;100642.23;104682;1309;75557;-77
2021/12/25 09:50:48;;;;;;;25.50;8.20;;;;;;;-4.80;84.31;100639.81;104624;1309;61648;-78
2021/12/25 09:55:46;;;;;;;16.20;5.30;;;;;;;-4.81;83.82;100646.90;104438;1308;75059;-78
2021/12/25 09:58:12;;;;;;;10.40;3.70;;;;;;;-4.81;83.92;100647.61;104355;1312;66753;-78
2021/12/25 10:00:42;;;;;;;17.60;5.10;;;;;;;-4.78;84.13;100648.69;104140;1312;74470;-81
2021/12/25 10:03:15;;;;;;;19.10;7.50;;;;;;;-4.75;83.89;100649.73;103944;1309;127330;-78
2021/12/25 10:06:26;;;;;;;6.60;3.80;;;;;;;-4.71;83.99;100646.23;104745;1325;60751;-79
2021/12/25 10:09:36;;;;;;;15.30;7.50;;;;;;;-4.64;83.74;100647.45;105045;1317;74763;-78
2021/12/25 10:13:07;;;;;;;12.90;6.10;;;;;;;-4.57;83.91;100648.83;104806;1325;72701;-79
2021/12/25 10:15:32;;;;;;;13.10;6.30;;;;;;;-4.49;83.69;100646.31;103683;1335;75216;-78
2021/12/25 10:18:21;;;;;;;17.90;7.50;;;;;;;-4.41;83.58;100646.98;104812;1322;62199;-78
2021/12/25 10:21:25;;;;;;;13.60;4.60;;;;;;;-4.36;83.01;100639.77;104063;1321;60549;-77
2021/12/25 10:25:01;;;;;;;;;;;;;;;;;;;;;
2021/12/25 10:27:33;;;;;;;13.70;3.90;;;;;;;-4.30;83.11;100642.91;103602;1328;71723;-78
2021/12/25 10:30:31;;;;;;;;;;;;;;;;;;;;;
2021/12/25 10:32:57;;;;;;;14.50;5.60;;;;;;;-4.18;82.59;100646.77;104898;1322;61221;-78
2021/12/25 10:35:27;;;;;;;9.30;5.60;;;;;;;-4.15;82.30;100642.32;104747;1321;60282;-78
2021/12/25 10:38:21;;;;;;;;;;;;;;;;;;;;;
2021/12/25 10:41:34;;;;;;;4.20;2.20;;;;;;;-4.08;82.49;100638.67;103814;1328;72501;-78
2021/12/25 10:45:14;;;;;;;12.20;6.10;;;;;;;-4.05;81.55;100633.11;104730;1322;73419;-78
2021/12/25 10:48:10;;;;;;;;;;;;;;;;;;;;;
2021/12/25 10:50:56;;;;;;;;;;;;;;;;;;;;;
2021/12/25 10:54:34;;;;;;;19.90;5.90;;;;;;;-3.92;80.75;100626.20;104755;1323;76052;-79
2021/12/25 10:58:11;;;;;;;5.60;2.70;;;;;;;-3.81;80.84;100627.54;104762;1318;71664;-78
2021/12/25 11:01:38;;;;;;;5.20;2.20;;;;;;;-3.78;79.73;100627.14;104910;1326;74262;-79
2021/12/25 11:05:08;;;;;;;5.40;2.30;;;;;;;-3.76;79.05;100623.40;104539;1324;61510;-79
2021/12/25 11:07:42;;;;;;;5.60;3.10;;;;;;;-3.72;78.76;100618.55;104515;1323;59619;-79
2021/12/25 11:10:20;;;;;;;10.00;3.70;;;;;;;-3.71;77.78;100616.08;104944;1321;74903;-79
2021/12/25 11:13:11;;;;;;;;;;;;;;;;;;;;;
2021/12/25 11:15:41;;;;;;;4.80;1.90;;;;;;;-3.63;77.48;100619.92;104821;1321;73132;-79
2021/12/25 11:19:11;;;;;;;3.10;1.80;;;;;;;-3.42;77.63;100618.58;104918;1321;61430;-79
2021/12/25 11:22:29;;;;;;;;;;;;;;;;;;;;;
2021/12/25 11:25:18;;;;;;;1.20;0.70;;;;;;;-3.19;74.53;100616.77;104374;1324;75277;-78
2021/12/25 11:28:06;;;;;;;;;;;;;;;;;;;;;
2021/12/25 11:30:59;;;;;;;11.10;2.90;;;;;;;-2.63;72.41;100609.34;104723;1322;73976;-79
2021/12/25 11:34:02;;;;;;;11.30;2.60;;;;;;;-2.26;70.32;100613.11;104917;1320;61173;-78
2021/12/25 11:37:21;;;;;;;11.80;3.20;;;;;;;-1.84;70.10;100622.83;104932;1321;59379;-77
2021/12/25 11:39:52;;;;;;;6.30;3.40;;;;;;;-1.45;69.44;100620.66;104555;1325;76144;-79
2021/12/25 11:42:19;;;;;;;14.70;4.70;;;;;;;-1.15;68.43;100616.84;104555;1322;71392;-78
2021/12/25 11:45:15;;;;;;;6.30;2.70;;;;;;;-0.90;67.53;100624.31;104521;1324;71860;-79
2021/12/25 11:47:55;;;;;;;6.00;2.90;;;;;;;-0.56;66.96;100620.30;104837;1322;59610;-80
2021/12/25 11:50:53;;;;;;;8.70;3.60;;;;;;;-0.30;64.13;100622.67;105043;1321;61944;-81
2021/12/25 11:56:43;;;;;;;9.80;2.50;;;;;;;0.27;64.83;100614.35;104654;1312;70121;-80
2021/12/25 11:59:13;;;;;;;5.90;3.70;;;;;;;0.65;64.04;100617.66;105021;1320;72581;-82
2021/12/25 12:01:50;;;;;;;10.10;3.90;;;;;;;1.01;61.65;100623.35;103898;1325;62123;-80
2021/12/25 12:04:21;;;;;;;10.40;4.50;;;;;;;1.32;60.06;100610.97;105008;1321;60666;-80
2021/12/25 12:06:48;;;;;;;7.00;2.50;;;;;;;1.71;60.25;100606.15;105005;1321;73834;-79
2021/12/25 12:09:30;;;;;;;6.40;3.30;;;;;;;1.93;57.49;100610.39;105004;1325;71532;-76
2021/12/25 12:12:03;;;;;;;8.60;3.50;;;;;;;2.27;57.42;100610.84;104613;1312;72943;-81
2021/12/25 12:14:31;;;;;;;6.20;3.70;;;;;;;2.56;56.29;100606.73;104751;1321;62464;-80
2021/12/25 12:17:04;;;;;;;6.40;3.40;;;;;;;2.87;55.98;100602.29;104812;1321;61365;-80
2021/12/25 12:19:31;;;;;;;7.30;3.10;;;;;;;3.19;54.58;100595.21;104574;1325;77311;-80
2021/12/25 12:21:58;;;;;;;7.40;3.30;;;;;;;3.50;53.19;100592.95;104719;1328;72585;-80
2021/12/25 12:27:04;;;;;;;9.70;4.00;;;;;;;4.00;52.26;100594.39;105042;1322;62496;-80
2021/12/25 12:29:52;;;;;;;7.90;3.60;;;;;;;4.20;50.51;100596.52;104708;1325;60535;-78
2021/12/25 12:32:18;;;;;;;6.70;2.70;;;;;;;4.38;49.18;100601.50;104877;1321;74916;-79
2021/12/25 12:34:47;;;;;;;8.30;2.70;;;;;;;4.44;48.27;100597.29;104926;1328;59145;-80
2021/12/25 12:37:14;;;;;;;5.40;3.10;;;;;;;4.59;48.97;100594.70;104468;1326;72923;-77
2021/12/25 12:39:42;;;;;;;9.00;3.50;;;;;;;5.00;49.47;100590.70;104903;1322;63521;-78
2021/12/25 12:42:12;;;;;;;10.10;2.60;;;;;;;5.51;48.13;100590.64;104806;1309;61391;-77
2021/12/25 12:47:22;;;;;;;21.90;4.20;;;;;;;6.49;43.87;100590.96;104041;1309;59239;-80
2021/12/25 12:49:49;;;;;;;56.30;5.20;;;;;;;6.90;42.94;100591.08;103879;1326;72903;-78
2021/12/25 12:52:20;;;;;;;28.20;4.10;;;;;;;7.21;41.87;100589.37;105012;1322;59089;-81
2021/12/25 12:54:47;;;;;;;22.60;3.50;;;;;;;7.50;41.03;100588.21;104634;1323;61696;-77
2021/12/25 12:57:19;;;;;;;27.70;2.90;;;;;;;7.71;39.99;100589.00;105016;1322;74909;-80
2021/12/25 12:59:59;;;;;;;20.00;3.30;;;;;;;7.96;40.58;100591.93;103653;1334;73870;-78
2021/12/25 13:02:48;;;;;;;36.60;3.30;;;;;;;8.16;39.71;100592.15;104711;1325;73945;-81
2021/12/25 13:05:38;;;;;;;46.30;3.10;;;;;;;8.24;38.84;100594.08;104411;1324;62213;-78
2021/12/25 13:08:13;;;;;;;80.80;4.70;;;;;;;7.97;38.66;100600.13;104425;1325;59266;-77
2021/12/25 13:10:48;;;;;;;31.10;2.60;;;;;;;7.89;40.40;100602.01;104007;1325;75321;-78
2021/12/25 13:13:23;;;;;;;13.80;1.90;;;;;;;7.91;40.10;100599.14;104366;1325;72834;-78
2021/12/25 13:15:58;;;;;;;8.20;2.50;;;;;;;7.89;39.74;100604.48;104415;1325;74148;-78
2021/12/25 13:18:27;;;;;;;15.10;2.20;;;;;;;7.82;38.60;100601.49;104390;1328;62034;-80
2021/12/25 13:20:55;;;;;;;4.30;1.40;;;;;;;7.87;40.13;100603.55;104413;1324;60615;-80
2021/12/25 13:23:38;;;;;;;22.70;2.30;;;;;;;8.16;38.77;100600.08;104454;1325;75138;-80
2021/12/25 13:26:09;;;;;;;3.70;1.60;;;;;;;8.69;38.67;100599.69;104420;1325;73095;-79
2021/12/25 13:28:38;;;;;;;21.50;2.60;;;;;;;9.15;38.66;100601.14;104155;1325;74130;-80
2021/12/25 13:31:27;;;;;;;19.20;2.70;;;;;;;9.44;37.20;100604.79;104442;1324;61392;-79
2021/12/25 13:34:05;;;;;;;7.30;2.70;;;;;;;9.73;38.25;100602.18;103324;1330;61217;-80